Time;durP1;ratioP1;P1;durP2;ratioP2;P2;SDS_P1;SDS_P2;PMS_P1;PMS_P2;Temp;Humidity;BMP_temperature;BMP_pressure;BME280_temperature;BME280_humidity;BME280_pressure;Samples;Min_cycle;Max_cycle;Signal;HPM_P1;HPM_P2
2022/05/27 00:00:33;;;;;;;8.17;7.37;;;;;;;15.92;83.50;100875.16;5037316;28;20195;-82
2022/05/27 00:02:59;;;;;;;9.20;7.47;;;;;;;15.92;83.90;100875.16;5040555;28;20236;-82
2022/05/27 00:05:26;;;;;;;7.73;7.03;;;;;;;15.89;84.27;100881.63;5035203;28;20719;-83
2022/05/27 00:07:52;;;;;;;9.93;7.50;;;;;;;15.89;84.42;100870.03;5040924;28;20197;-83
2022/05/27 00:10:19;;;;;;;8.50;7.80;;;;;;;15.87;84.49;100878.22;5036890;28;20221;-81
2022/05/27 00:12:46;;;;;;;11.80;7.83;;;;;;;15.86;84.62;100876.50;5034364;28;20230;-83
2022/05/27 00:15:12;;;;;;;10.33;8.60;;;;;;;15.84;84.75;100872.22;5036045;28;20263;-83
2022/05/27 00:17:40;;;;;;;9.70;8.80;;;;;;;15.84;84.81;100864.19;5036426;28;20206;-83
2022/05/27 00:20:08;;;;;;;9.37;7.87;;;;;;;15.82;84.55;100861.63;5035457;28;20213;-83
2022/05/27 00:22:35;;;;;;;9.17;8.03;;;;;;;15.81;84.96;100857.22;5042089;28;20232;-83
2022/05/27 00:25:02;;;;;;;9.20;8.30;;;;;;;15.79;85.01;100847.56;5038743;28;20199;-83
2022/05/27 00:27:29;;;;;;;8.40;7.53;;;;;;;15.79;84.97;100852.94;5042410;28;20268;-83
2022/05/27 00:29:55;;;;;;;7.60;6.90;;;;;;;15.78;84.71;100845.88;5040260;28;20933;-82
2022/05/27 00:32:22;;;;;;;9.00;7.83;;;;;;;15.77;85.07;100850.38;5045765;28;20218;-83
2022/05/27 00:34:50;;;;;;;9.63;8.23;;;;;;;15.75;85.24;100847.00;5044094;28;20320;-84
2022/05/27 00:37:17;;;;;;;7.70;7.00;;;;;;;15.74;85.05;100847.97;5040668;28;20210;-83
2022/05/27 00:39:44;;;;;;;8.40;7.47;;;;;;;15.74;85.05;100847.13;5035998;28;20224;-84
2022/05/27 00:42:10;;;;;;;9.37;7.83;;;;;;;15.75;84.79;100838.09;5046386;28;20226;-83
2022/05/27 00:44:37;;;;;;;9.00;8.10;;;;;;;15.73;85.23;100843.59;5045336;28;20200;-83
2022/05/27 00:47:08;;;;;;;9.83;8.57;;;;;;;15.71;85.38;100829.44;5050303;28;20210;-83
2022/05/27 00:49:39;;;;;;;9.43;8.03;;;;;;;15.71;85.18;100834.78;5056829;28;20277;-83
2022/05/27 00:52:13;;;;;;;11.07;7.73;;;;;;;15.71;85.00;100840.16;5059334;28;20232;-84
2022/05/27 00:54:41;;;;;;;10.73;8.80;;;;;;;15.70;85.32;100830.41;5056436;28;20308;-84
2022/05/27 00:57:11;;;;;;;8.60;7.80;;;;;;;15.70;85.13;100826.88;5055334;28;20216;-84
2022/05/27 00:59:41;;;;;;;9.80;8.80;;;;;;;15.70;85.25;100822.34;5056008;28;20205;-84
2022/05/27 01:02:08;;;;;;;10.53;8.30;;;;;;;15.70;85.16;100827.72;5073161;28;20217;-83
2022/05/27 01:04:36;;;;;;;9.73;8.73;;;;;;;15.69;85.35;100830.53;5073051;28;20212;-82
2022/05/27 01:07:04;;;;;;;9.57;8.67;;;;;;;15.69;84.99;100827.84;5072852;28;20692;-83
2022/05/27 01:09:35;;;;;;;10.07;8.37;;;;;;;15.69;85.36;100828.69;5070411;28;20295;-83
2022/05/27 01:12:21;;;;;;;11.07;8.73;;;;;;;15.68;85.34;100824.31;5051179;28;20221;-83
2022/05/27 01:15:07;;;;;;;9.73;8.63;;;;;;;15.69;85.42;100817.09;5050567;28;20219;-83
2022/05/27 01:17:45;;;;;;;12.23;9.53;;;;;;;15.67;85.61;100805.63;5052348;28;20627;-84
2022/05/27 01:20:24;;;;;;;10.77;9.60;;;;;;;15.65;85.67;100803.06;5052259;28;20212;-84
2022/05/27 01:23:36;;;;;;;9.33;8.43;;;;;;;15.64;85.58;100804.03;5053217;28;20225;-85
2022/05/27 01:26:37;;;;;;;9.57;8.60;;;;;;;15.63;85.70;100805.03;5052775;28;20220;-83
2022/05/27 01:29:35;;;;;;;9.97;8.50;;;;;;;15.60;85.70;100803.44;5052176;28;20215;-84
2022/05/27 01:32:09;;;;;;;9.30;8.20;;;;;;;15.58;86.29;100801.88;5052649;28;20232;-83
2022/05/27 01:34:48;;;;;;;8.00;7.20;;;;;;;15.57;85.86;100803.72;5052630;28;20213;-84
2022/05/27 01:37:25;;;;;;;7.53;6.93;;;;;;;15.55;86.08;100818.19;5051718;28;20200;-83
2022/05/27 01:39:58;;;;;;;7.47;6.73;;;;;;;15.52;86.20;100808.56;5050568;28;20215;-83
2022/05/27 01:42:32;;;;;;;7.10;5.90;;;;;;;15.51;86.10;100800.63;5053350;28;20615;-83
2022/05/27 01:45:03;;;;;;;6.30;5.80;;;;;;;15.50;86.09;100801.59;5052066;28;20200;-82
2022/05/27 01:47:35;;;;;;;8.67;5.93;;;;;;;15.50;86.18;100805.16;5051287;28;20220;-82
2022/05/27 01:50:08;;;;;;;6.20;5.67;;;;;;;15.50;85.98;100806.97;5052232;28;20201;-83
2022/05/27 01:52:43;;;;;;;5.70;5.20;;;;;;;15.48;86.12;100807.09;5051632;28;20221;-83
2022/05/27 01:55:16;;;;;;;6.43;5.20;;;;;;;15.48;86.08;100798.19;5051833;28;20228;-82
2022/05/27 01:57:46;;;;;;;5.20;4.80;;;;;;;15.46;86.13;100803.69;5051442;28;20290;-82
2022/05/27 02:00:18;;;;;;;5.87;4.57;;;;;;;15.46;86.42;100808.19;5051906;28;20682;-82
2022/05/27 02:02:51;;;;;;;5.37;3.73;;;;;;;15.42;86.44;100799.53;5051857;28;20313;-83
2022/05/27 02:05:23;;;;;;;4.07;3.37;;;;;;;15.39;86.51;100788.22;5052024;28;20197;-83
2022/05/27 02:07:55;;;;;;;3.90;3.50;;;;;;;15.37;86.70;100795.53;5051299;28;20213;-83
2022/05/27 02:10:28;;;;;;;3.80;3.40;;;;;;;15.34;86.58;100795.78;5051742;28;20193;-83
2022/05/27 02:13:00;;;;;;;3.93;3.63;;;;;;;15.31;87.00;100799.56;5051299;28;20228;-83
2022/05/27 02:15:32;;;;;;;3.50;3.20;;;;;;;15.27;87.15;100793.59;5046582;28;20205;-84
2022/05/27 02:18:06;;;;;;;3.30;2.90;;;;;;;15.24;87.38;100787.59;5051139;28;20195;-84
2022/05/27 02:20:38;;;;;;;4.73;3.50;;;;;;;15.21;87.80;100788.72;5051658;28;20644;-84
2022/05/27 02:23:11;;;;;;;3.73;3.43;;;;;;;15.19;87.69;100788.00;5051314;28;20222;-83
2022/05/27 02:25:42;;;;;;;4.10;3.70;;;;;;;15.14;87.93;100782.13;5051709;28;20202;-84
2022/05/27 02:28:14;;;;;;;4.10;3.80;;;;;;;15.12;88.42;100784.09;5047712;28;20854;-84
2022/05/27 02:30:44;;;;;;;4.43;4.03;;;;;;;15.10;88.38;100779.81;5040011;28;20202;-84
2022/05/27 02:36:04;;;;;;;4.03;3.73;;;;;;;15.04;88.98;100781.19;5034341;28;20224;-84
2022/05/27 02:38:31;;;;;;;3.57;3.27;;;;;;;15.02;89.18;100776.91;5044447;28;20212;-84
2022/05/27 02:41:03;;;;;;;3.30;3.03;;;;;;;14.99;89.08;100774.47;5046951;28;20644;-84
2022/05/27 02:43:43;;;;;;;3.47;3.20;;;;;;;14.96;89.11;100777.38;5051108;28;20632;-84
2022/05/27 02:46:19;;;;;;;3.30;3.00;;;;;;;14.91;89.48;100758.97;5062342;28;20191;-83
2022/05/27 02:48:56;;;;;;;3.10;2.80;;;;;;;14.90;89.63;100784.09;5067995;28;20200;-83
2022/05/27 02:51:26;;;;;;;3.50;3.20;;;;;;;14.86;90.13;100817.50;5050899;28;20741;-83
2022/05/27 02:54:01;;;;;;;4.97;3.50;;;;;;;14.82;90.16;100832.13;5050399;28;20216;-84
2022/05/27 02:56:31;;;;;;;4.53;3.47;;;;;;;14.79;90.66;100835.03;5057275;28;20208;-84
2022/05/27 02:58:58;;;;;;;4.70;3.00;;;;;;;14.74;90.65;100848.78;5051013;28;20228;-84
2022/05/27 03:01:24;;;;;;;3.30;2.27;;;;;;;14.73;90.34;100851.59;5050807;28;20252;-83
2022/05/27 03:03:52;;;;;;;1.67;1.37;;;;;;;14.68;90.18;100854.66;5050633;28;20212;-83
2022/05/27 03:06:31;;;;;;;0.80;0.80;;;;;;;14.57;88.59;100849.22;5049002;28;20201;-83
2022/05/27 03:09:03;;;;;;;1.00;0.90;;;;;;;14.43;87.30;100844.94;5050543;28;20193;-83
2022/05/27 03:11:42;;;;;;;0.93;0.73;;;;;;;14.29;86.33;100853.16;5050559;28;20609;-83
2022/05/27 03:14:27;;;;;;;0.87;0.70;;;;;;;14.17;85.38;100856.72;5050638;28;20197;-83
2022/05/27 03:17:04;;;;;;;0.80;0.60;;;;;;;14.10;85.04;100858.16;5037224;28;20197;-83
2022/05/27 03:19:45;;;;;;;1.77;0.80;;;;;;;14.04;85.04;100870.19;5050456;28;20194;-83
2022/05/27 03:22:19;;;;;;;1.20;0.83;;;;;;;14.03;85.15;100863.13;5050183;28;20228;-85
2022/05/27 03:25:06;;;;;;;0.87;0.87;;;;;;;14.00;84.95;100849.09;5050383;28;20193;-84
2022/05/27 03:27:39;;;;;;;0.77;0.67;;;;;;;13.96;84.83;100848.50;5049598;28;20205;-83
2022/05/27 03:30:10;;;;;;;1.70;1.00;;;;;;;13.95;85.14;100849.47;5050475;28;20199;-84
2022/05/27 03:32:43;;;;;;;1.07;0.97;;;;;;;13.94;84.83;100852.25;5037778;28;20226;-84
2022/05/27 03:35:18;;;;;;;1.30;0.83;;;;;;;13.94;84.71;100833.50;5039509;28;20221;-84
2022/05/27 03:37:51;;;;;;;1.40;0.70;;;;;;;13.92;84.54;100806.00;5041721;28;20572;-85
2022/05/27 03:40:23;;;;;;;2.47;0.83;;;;;;;13.89;84.96;100821.31;5047869;28;20205;-84
2022/05/27 03:42:51;;;;;;;1.67;0.90;;;;;;;13.89;84.55;100845.41;5041951;28;20229;-83
2022/05/27 03:45:20;;;;;;;1.47;0.80;;;;;;;13.89;84.74;100863.28;5050097;28;20205;-84
2022/05/27 03:47:47;;;;;;;1.93;0.87;;;;;;;13.89;84.74;100866.81;5040744;28;20205;-83
2022/05/27 03:50:17;;;;;;;1.10;0.93;;;;;;;13.88;84.59;100864.25;5041539;28;20201;-83
2022/05/27 03:52:46;;;;;;;2.13;1.00;;;;;;;13.85;83.94;100853.75;5046317;28;20221;-83
2022/05/27 03:55:14;;;;;;;2.40;0.80;;;;;;;13.82;83.83;100854.84;5049458;28;20712;-84
2022/05/27 03:57:41;;;;;;;1.23;0.90;;;;;;;13.80;83.94;100840.72;5039624;28;20197;-85
2022/05/27 04:00:12;;;;;;;0.83;0.80;;;;;;;13.79;84.08;100844.34;5040044;28;20206;-83
2022/05/27 04:02:39;;;;;;;1.40;0.90;;;;;;;13.78;84.11;100865.91;5034973;28;20222;-84
2022/05/27 04:05:07;;;;;;;1.50;0.87;;;;;;;13.76;84.18;100859.81;5041402;28;20583;-84
2022/05/27 04:07:35;;;;;;;2.97;1.40;;;;;;;13.74;84.07;100873.31;5035071;28;20202;-84
2022/05/27 04:10:02;;;;;;;1.07;0.93;;;;;;;13.73;84.23;100868.06;5046863;28;20656;-84
2022/05/27 04:12:28;;;;;;;1.30;1.03;;;;;;;13.73;84.47;100868.06;5039376;28;20225;-84
2022/05/27 04:14:55;;;;;;;1.20;1.10;;;;;;;13.71;84.58;100872.66;5038333;28;20229;-83
2022/05/27 04:17:33;;;;;;;2.13;1.37;;;;;;;13.71;84.88;100867.31;5045991;28;20204;-84
2022/05/27 04:20:01;;;;;;;1.53;1.00;;;;;;;13.71;84.36;100878.88;5048550;28;20197;-85
2022/05/27 04:22:28;;;;;;;2.70;1.47;;;;;;;13.69;84.58;100875.47;5046167;28;20840;-84
2022/05/27 04:24:58;;;;;;;2.53;1.00;;;;;;;13.69;84.51;100882.63;5042377;28;20194;-84
2022/05/27 04:27:25;;;;;;;1.17;0.90;;;;;;;13.68;84.77;100879.09;5046277;28;20201;-84
2022/05/27 04:29:52;;;;;;;2.40;1.07;;;;;;;13.68;84.37;100883.59;5053575;28;20190;-83
2022/05/27 04:32:21;;;;;;;2.43;1.30;;;;;;;13.66;84.70;100878.34;5049154;28;20637;-84
2022/05/27 04:34:48;;;;;;;1.43;1.07;;;;;;;13.62;84.34;100876.84;5052360;28;20233;-84
2022/05/27 04:37:15;;;;;;;2.67;1.30;;;;;;;13.61;84.48;100882.34;5049811;28;20200;-85
2022/05/27 04:39:43;;;;;;;2.83;1.50;;;;;;;13.60;83.98;100881.50;5050197;28;20201;-84
2022/05/27 04:42:12;;;;;;;1.77;1.30;;;;;;;13.60;84.33;100873.47;5048503;28;20256;-85
2022/05/27 04:44:39;;;;;;;3.67;1.70;;;;;;;13.62;84.42;100884.88;5044781;28;20773;-85
2022/05/27 04:47:07;;;;;;;3.87;1.97;;;;;;;13.63;84.89;100883.06;5046943;28;20209;-84
2022/05/27 04:49:53;;;;;;;4.70;1.80;;;;;;;13.65;85.14;100894.50;5049570;28;20206;-84
2022/05/27 04:52:20;;;;;;;3.03;2.00;;;;;;;13.65;85.22;100889.16;5052926;28;20229;-84
2022/05/27 04:54:46;;;;;;;6.73;2.10;;;;;;;13.68;85.37;100887.13;5053688;28;20221;-84
2022/05/27 04:57:16;;;;;;;5.27;2.50;;;;;;;13.71;85.07;100889.59;5041663;28;20202;-85
2022/05/27 04:59:46;;;;;;;3.03;2.13;;;;;;;13.72;85.26;100891.28;5054532;28;20210;-84
2022/05/27 05:02:13;;;;;;;3.37;1.93;;;;;;;13.73;85.53;100879.63;5054549;28;20230;-86
2022/05/27 05:04:39;;;;;;;4.50;2.40;;;;;;;13.72;85.78;100885.94;5054292;28;20209;-84
2022/05/27 05:07:08;;;;;;;5.47;2.57;;;;;;;13.74;85.63;100889.38;5053430;28;20202;-85
2022/05/27 05:09:35;;;;;;;3.93;2.53;;;;;;;13.75;85.84;100891.06;5053954;28;20200;-84
2022/05/27 05:12:01;;;;;;;4.60;2.93;;;;;;;13.78;85.70;100882.84;5054153;28;20650;-84
2022/05/27 05:14:29;;;;;;;3.73;2.80;;;;;;;13.79;85.72;100897.06;5053901;28;20217;-84
2022/05/27 05:16:56;;;;;;;6.77;2.83;;;;;;;13.81;85.65;100889.75;5053063;28;20236;-84
2022/05/27 05:19:23;;;;;;;4.70;3.00;;;;;;;13.82;85.16;100902.19;5053694;28;20767;-84
2022/05/27 05:21:49;;;;;;;3.60;2.23;;;;;;;13.81;85.35;100906.66;5053939;28;20233;-85
2022/05/27 05:24:16;;;;;;;3.07;2.27;;;;;;;13.83;85.14;100906.56;5054644;28;20568;-85
2022/05/27 05:26:42;;;;;;;3.20;2.53;;;;;;;13.85;85.39;100905.50;5054098;28;20201;-84
2022/05/27 05:29:09;;;;;;;4.60;2.67;;;;;;;13.89;85.44;100901.63;5053533;28;20202;-85
2022/05/27 05:31:37;;;;;;;4.43;2.73;;;;;;;13.93;85.04;100906.75;5050476;28;20843;-84
2022/05/27 05:34:04;;;;;;;4.63;2.37;;;;;;;13.94;84.96;100903.13;5045325;28;20201;-84
2022/05/27 05:36:30;;;;;;;4.93;2.63;;;;;;;13.94;84.79;100905.81;5041486;28;20221;-84
2022/05/27 05:38:57;;;;;;;3.93;2.40;;;;;;;13.95;84.35;100908.38;5041258;28;20207;-86
2022/05/27 05:41:26;;;;;;;4.93;2.30;;;;;;;13.99;84.07;100911.66;5043387;28;20226;-85
2022/05/27 05:43:53;;;;;;;5.33;2.57;;;;;;;13.99;83.94;100907.16;5046252;28;20208;-84
2022/05/27 05:46:19;;;;;;;5.43;2.47;;;;;;;14.01;83.67;100915.06;5048425;28;20194;-84
2022/05/27 05:48:47;;;;;;;4.53;2.80;;;;;;;14.05;83.68;100912.06;5040171;28;20202;-85
2022/05/27 05:51:14;;;;;;;4.73;2.30;;;;;;;14.08;83.05;100919.03;5041221;28;20205;-85
2022/05/27 05:53:40;;;;;;;6.60;2.20;;;;;;;14.12;82.79;100924.06;5040912;28;20194;-85
2022/05/27 05:56:07;;;;;;;4.53;2.20;;;;;;;14.19;82.70;100922.63;5048295;28;20283;-84
2022/05/27 05:58:34;;;;;;;4.73;2.17;;;;;;;14.28;82.83;100921.09;5039681;28;20550;-85
2022/05/27 06:01:00;;;;;;;4.93;2.23;;;;;;;14.36;82.73;100915.13;5050959;28;20205;-84
2022/05/27 06:03:27;;;;;;;4.90;2.23;;;;;;;14.42;82.59;100928.97;5044970;28;20205;-84
2022/05/27 06:05:55;;;;;;;4.50;2.33;;;;;;;14.45;81.61;100928.75;5047190;28;20667;-84
2022/05/27 06:08:22;;;;;;;4.30;2.40;;;;;;;14.46;80.74;100914.38;5044071;28;20251;-85
2022/05/27 06:10:49;;;;;;;3.80;2.60;;;;;;;14.53;80.90;100909.41;5051813;28;20207;-86
2022/05/27 06:13:16;;;;;;;5.23;1.97;;;;;;;14.63;80.61;100904.22;5047328;28;20222;-85
2022/05/27 06:15:43;;;;;;;5.60;2.60;;;;;;;14.73;79.78;100911.41;5044794;28;20229;-86
2022/05/27 06:18:12;;;;;;;8.70;2.60;;;;;;;14.89;80.46;100903.03;5049028;28;20206;-85
2022/05/27 06:20:40;;;;;;;2.47;2.03;;;;;;;15.05;80.23;100902.75;5050606;28;20221;-85
2022/05/27 06:23:09;;;;;;;4.47;2.50;;;;;;;15.23;80.16;100904.81;5040881;28;20236;-85
2022/05/27 06:25:37;;;;;;;4.33;2.60;;;;;;;15.34;78.90;100903.97;5038854;28;20206;-87
2022/05/27 06:36:17;;;;;;;2.87;2.00;;;;;;;15.58;76.44;100896.69;5039091;28;20216;-84
2022/05/27 06:38:46;;;;;;;5.70;1.80;;;;;;;15.63;74.82;100901.66;5045535;28;20250;-84
2022/05/27 06:41:12;;;;;;;3.27;1.73;;;;;;;15.64;73.75;100895.31;5038494;28;20222;-85
2022/05/27 06:43:39;;;;;;;3.93;1.70;;;;;;;15.68;73.80;100896.78;5041810;28;20210;-85
2022/05/27 06:46:05;;;;;;;4.43;2.10;;;;;;;15.74;73.01;100906.19;5042509;28;20209;-86
2022/05/27 06:48:32;;;;;;;3.63;1.50;;;;;;;15.74;72.01;100904.38;5041687;28;20240;-85
2022/05/27 06:51:05;;;;;;;3.57;1.90;;;;;;;15.82;72.36;100901.91;5039083;28;20210;-85
2022/05/27 06:53:31;;;;;;;5.30;1.90;;;;;;;15.93;71.65;100917.16;5043043;28;20206;-86
2022/05/27 06:55:59;;;;;;;6.43;1.60;;;;;;;15.99;70.81;100911.25;5042550;28;20231;-84
2022/05/27 06:58:26;;;;;;;3.20;1.80;;;;;;;16.03;70.35;100914.56;5039547;28;20209;-86
2022/05/27 07:00:52;;;;;;;3.10;1.40;;;;;;;16.06;70.07;100909.78;5045617;28;20208;-85
2022/05/27 07:03:19;;;;;;;4.53;1.50;;;;;;;16.06;69.38;100935.81;5044548;28;20303;-84
2022/05/27 07:05:46;;;;;;;3.83;1.70;;;;;;;16.02;68.77;100929.81;5044491;28;20200;-85
2022/05/27 07:08:14;;;;;;;5.33;1.50;;;;;;;15.96;67.92;100925.78;5041478;28;20213;-85
2022/05/27 07:10:41;;;;;;;4.17;1.80;;;;;;;15.92;67.53;100932.41;5044104;28;20216;-85
2022/05/27 07:13:09;;;;;;;3.57;1.60;;;;;;;15.88;67.34;100935.47;5043440;28;20247;-85
2022/05/27 07:15:36;;;;;;;5.97;2.00;;;;;;;15.87;67.56;100939.13;5045057;28;20667;-84
2022/05/27 07:18:04;;;;;;;5.03;1.70;;;;;;;15.85;66.97;100923.13;5039981;28;20203;-83
2022/05/27 07:20:31;;;;;;;2.93;1.67;;;;;;;15.83;66.58;100927.78;5045766;28;20215;-85
2022/05/27 07:22:57;;;;;;;5.73;1.70;;;;;;;15.81;66.24;100923.50;5042811;28;20226;-85
2022/05/27 07:25:24;;;;;;;4.93;1.80;;;;;;;15.79;65.62;100931.69;5039236;28;20221;-85
2022/05/27 07:27:50;;;;;;;2.60;1.47;;;;;;;15.75;65.37;100938.31;5038325;28;20243;-85
2022/05/27 07:30:19;;;;;;;3.87;1.80;;;;;;;15.75;65.73;100921.34;5045480;28;20215;-85
2022/05/27 07:32:46;;;;;;;2.43;1.33;;;;;;;15.80;66.29;100922.66;5042605;28;20257;-84
2022/05/27 07:35:13;;;;;;;6.10;2.60;;;;;;;15.86;66.64;100932.91;5042173;28;20239;-84
2022/05/27 07:37:39;;;;;;;5.60;1.77;;;;;;;15.89;65.96;100921.06;5041047;28;20213;-85
2022/05/27 07:40:07;;;;;;;4.70;1.77;;;;;;;15.93;65.83;100920.69;5035649;28;20294;-85
2022/05/27 07:42:34;;;;;;;3.50;1.67;;;;;;;16.03;65.53;100917.25;5046453;28;20223;-84
2022/05/27 07:45:00;;;;;;;5.67;1.53;;;;;;;16.14;65.13;100914.53;5047763;28;20294;-84
2022/05/27 07:47:28;;;;;;;7.70;2.17;;;;;;;16.31;65.00;100911.28;5055207;28;20209;-85
2022/05/27 07:49:55;;;;;;;5.30;1.80;;;;;;;16.51;65.43;100909.63;5044854;28;20620;-85
2022/05/27 07:52:22;;;;;;;6.47;1.67;;;;;;;16.69;64.75;100910.78;5044602;28;20231;-86
2022/05/27 07:54:50;;;;;;;3.63;1.27;;;;;;;16.71;61.44;100913.34;5050340;28;20302;-86
2022/05/27 07:57:25;;;;;;;4.10;1.33;;;;;;;16.66;60.41;100919.13;5042073;28;20254;-85
2022/05/27 07:59:59;;;;;;;6.53;1.50;;;;;;;16.63;60.33;100920.25;5045890;28;20947;-85
2022/05/27 08:02:26;;;;;;;4.00;1.67;;;;;;;16.60;60.00;100909.72;5054026;28;20212;-85
2022/05/27 08:04:54;;;;;;;4.10;1.63;;;;;;;16.61;60.06;100924.03;5064183;28;20235;-85
2022/05/27 08:07:21;;;;;;;6.37;1.80;;;;;;;16.60;60.21;100925.00;5055665;28;20290;-85
2022/05/27 08:09:47;;;;;;;2.90;1.80;;;;;;;16.60;60.27;100925.84;5055892;28;20228;-86
2022/05/27 08:12:14;;;;;;;4.10;1.50;;;;;;;16.66;60.46;100924.50;5056813;28;20820;-85
2022/05/27 08:14:40;;;;;;;5.40;1.60;;;;;;;16.72;59.29;100920.44;5058119;28;20202;-85
2022/05/27 08:17:07;;;;;;;7.20;2.10;;;;;;;16.74;57.34;100927.41;5060251;28;20223;-85
2022/05/27 08:19:33;;;;;;;4.83;1.77;;;;;;;16.75;55.90;100922.88;5061437;28;20216;-84
2022/05/27 08:22:01;;;;;;;3.40;1.63;;;;;;;16.76;56.06;100929.97;5060412;28;20236;-85
2022/05/27 08:24:31;;;;;;;6.07;1.53;;;;;;;16.83;56.64;100925.78;5054594;28;20205;-85
2022/05/27 08:26:58;;;;;;;4.97;2.00;;;;;;;16.94;56.87;100925.72;5058557;28;20198;-85
2022/05/27 08:29:24;;;;;;;4.23;1.60;;;;;;;17.00;56.03;100927.88;5061247;28;20202;-85
2022/05/27 08:31:51;;;;;;;4.23;1.73;;;;;;;17.06;55.58;100916.56;5059511;28;20313;-84
2022/05/27 08:39:48;;;;;;;7.23;1.93;;;;;;;17.25;53.34;100915.84;5051586;28;20217;-84
2022/05/27 08:42:25;;;;;;;5.03;1.73;;;;;;;17.24;52.72;100919.50;5053108;28;20575;-86
2022/05/27 08:45:00;;;;;;;5.90;2.07;;;;;;;17.27;52.54;100922.78;5047859;28;20210;-84
2022/05/27 08:47:31;;;;;;;5.57;1.90;;;;;;;17.26;51.97;100920.25;5041461;28;20190;-84
2022/05/27 08:50:08;;;;;;;5.60;2.10;;;;;;;17.23;51.89;100913.28;5045370;28;20198;-84
2022/05/27 08:52:42;;;;;;;3.33;1.50;;;;;;;17.23;52.41;100921.34;5048468;28;20221;-84
2022/05/27 09:00:42;;;;;;;5.73;1.80;;;;;;;17.59;53.57;100905.66;5039524;28;20259;-84
2022/05/27 09:03:10;;;;;;;4.87;2.13;;;;;;;17.75;52.93;100906.03;5042119;28;20690;-85
2022/05/27 09:05:43;;;;;;;4.93;1.70;;;;;;;17.84;51.10;100902.50;5047052;28;20216;-84
2022/05/27 09:08:18;;;;;;;4.53;2.40;;;;;;;17.97;50.99;100908.50;5055562;28;20210;-85
2022/05/27 09:11:07;;;;;;;4.83;2.20;;;;;;;18.15;50.72;100921.28;5064079;28;20724;-85
2022/05/27 09:13:39;;;;;;;5.53;1.80;;;;;;;18.22;49.81;100915.22;5056530;28;20211;-85
2022/05/27 09:16:16;;;;;;;4.43;1.80;;;;;;;18.28;50.53;100906.56;5062063;28;20225;-85
2022/05/27 09:18:58;;;;;;;5.27;2.07;;;;;;;18.32;50.39;100907.13;5056307;28;20204;-84
2022/05/27 09:21:38;;;;;;;7.67;1.83;;;;;;;18.33;50.48;100915.09;5050169;28;20362;-84
2022/05/27 09:24:19;;;;;;;5.97;1.73;;;;;;;18.25;50.60;100906.88;5050054;28;20675;-84
2022/05/27 09:26:54;;;;;;;4.93;1.90;;;;;;;18.24;51.60;100901.59;5045966;28;20205;-85
2022/05/27 09:29:36;;;;;;;5.17;2.20;;;;;;;18.19;51.20;100902.03;5046503;28;20207;-84
2022/05/27 09:32:07;;;;;;;8.57;2.57;;;;;;;18.14;51.58;100895.34;5047472;28;20232;-84
2022/05/27 09:34:38;;;;;;;7.27;2.23;;;;;;;18.15;52.27;100892.50;5048974;28;20207;-84
2022/05/27 09:37:09;;;;;;;7.50;2.00;;;;;;;18.18;52.87;100896.75;5043718;28;20501;-85
2022/05/27 09:39:40;;;;;;;6.13;2.37;;;;;;;18.17;52.18;100900.44;5049176;28;20206;-85
2022/05/27 09:42:14;;;;;;;4.57;1.87;;;;;;;18.15;52.17;100899.72;5049260;28;20223;-85
2022/05/27 09:44:48;;;;;;;6.77;2.63;;;;;;;18.14;51.73;100898.03;5050105;28;20253;-83
2022/05/27 09:47:15;;;;;;;4.97;2.10;;;;;;;18.09;51.22;100903.00;5040467;28;20737;-85
2022/05/27 09:49:43;;;;;;;5.67;2.10;;;;;;;18.02;50.98;100900.00;5046707;28;20243;-85
2022/05/27 09:52:12;;;;;;;5.60;2.07;;;;;;;17.96;51.13;100900.53;5047978;28;20226;-84
2022/05/27 09:54:47;;;;;;;7.77;2.33;;;;;;;17.92;52.21;100932.31;5046042;28;20210;-83
2022/05/27 09:57:22;;;;;;;5.80;2.37;;;;;;;17.87;54.04;100921.09;5047416;28;20294;-83
2022/05/27 09:59:53;;;;;;;6.83;2.43;;;;;;;17.75;55.85;100946.44;5044006;28;20199;-83
2022/05/27 10:02:23;;;;;;;5.83;2.97;;;;;;;17.52;56.84;100940.38;5039534;28;20279;-84
2022/05/27 10:04:52;;;;;;;6.63;2.30;;;;;;;17.30;58.41;100948.59;5044779;28;20198;-85
2022/05/27 10:07:25;;;;;;;6.10;3.10;;;;;;;17.05;59.26;100941.78;5035508;28;20244;-84
2022/05/27 10:09:55;;;;;;;5.23;2.20;;;;;;;16.87;61.25;100929.91;5040459;28;20219;-85
2022/05/27 10:12:30;;;;;;;7.13;2.63;;;;;;;16.81;62.54;100922.38;5042832;28;20219;-85
2022/05/27 10:14:56;;;;;;;5.63;2.80;;;;;;;16.74;63.55;100921.16;5041082;28;20213;-83
2022/05/27 10:17:31;;;;;;;6.50;2.77;;;;;;;16.66;64.10;100928.03;5037782;28;20659;-84
2022/05/27 10:20:18;;;;;;;5.20;2.53;;;;;;;16.64;64.94;100932.72;5039822;28;20227;-83
2022/05/27 10:22:58;;;;;;;9.87;2.70;;;;;;;16.66;65.51;100919.97;5039856;28;20641;-83
2022/05/27 10:25:36;;;;;;;4.23;2.07;;;;;;;16.76;66.08;100921.91;5048840;28;20716;-84
2022/05/27 10:28:04;;;;;;;4.23;2.00;;;;;;;16.83;65.89;100921.25;5046052;28;20763;-84
2022/05/27 10:30:33;;;;;;;6.33;2.30;;;;;;;16.90;65.64;100911.66;5051589;28;20208;-83
2022/05/27 10:33:16;;;;;;;7.10;2.30;;;;;;;17.01;65.32;100916.16;5059784;28;20220;-85
2022/05/27 10:35:42;;;;;;;4.83;1.97;;;;;;;17.09;64.74;100915.47;5055627;28;20288;-83
2022/05/27 10:38:38;;;;;;;6.13;2.13;;;;;;;17.13;62.77;100916.91;5044530;28;20331;-84
2022/05/27 10:41:27;;;;;;;7.77;2.40;;;;;;;17.14;60.89;100908.72;5045777;28;20292;-84
2022/05/27 10:44:08;;;;;;;6.23;2.20;;;;;;;17.28;61.54;100904.81;5048395;28;20261;-84
2022/05/27 10:46:45;;;;;;;6.63;2.43;;;;;;;17.39;60.92;100898.47;5052957;28;20200;-84
2022/05/27 10:49:32;;;;;;;6.63;2.53;;;;;;;17.50;60.38;100896.56;5048619;28;20197;-84
2022/05/27 10:52:08;;;;;;;5.60;1.90;;;;;;;17.64;60.28;100907.00;5046408;28;20909;-84
2022/05/27 10:54:51;;;;;;;5.77;2.10;;;;;;;17.74;58.52;100904.31;5044475;28;20204;-83
2022/05/27 11:03:25;;;;;;;6.97;2.33;;;;;;;17.98;55.08;100888.66;5045664;28;20291;-84
2022/05/27 11:06:10;;;;;;;6.53;2.00;;;;;;;17.99;54.37;100876.88;5047622;28;20201;-84
2022/05/27 11:08:52;;;;;;;5.97;2.03;;;;;;;18.12;55.04;100878.44;5046313;28;20205;-83
2022/05/27 11:11:31;;;;;;;5.00;2.13;;;;;;;18.13;52.15;100890.94;5049886;28;20750;-83
2022/05/27 11:17:03;;;;;;;4.50;1.50;;;;;;;18.22;50.41;100887.41;5051778;28;20364;-84
2022/05/27 11:19:46;;;;;;;5.47;1.70;;;;;;;18.29;50.64;100893.94;5047069;28;20217;-85
2022/05/27 11:22:26;;;;;;;4.93;1.60;;;;;;;18.28;50.26;100894.91;5048491;28;20229;-84
2022/05/27 11:25:22;;;;;;;6.43;1.93;;;;;;;18.33;51.69;100884.56;5037838;28;20202;-84
2022/05/27 11:28:06;;;;;;;5.70;1.80;;;;;;;18.45;52.07;100885.31;4976642;28;20343;-84
2022/05/27 11:30:50;;;;;;;8.53;2.17;;;;;;;18.55;51.36;100881.59;5044304;28;20220;-83
2022/05/27 11:33:33;;;;;;;5.87;1.60;;;;;;;18.61;50.53;100886.47;5046293;28;20315;-83
2022/05/27 11:36:21;;;;;;;7.23;2.07;;;;;;;18.62;49.74;100882.78;5047805;28;20290;-83
2022/05/27 11:39:02;;;;;;;9.20;1.93;;;;;;;18.62;49.07;100884.63;5046830;28;20239;-83
2022/05/27 11:41:33;;;;;;;6.20;1.90;;;;;;;18.55;48.04;100886.13;5039393;28;20237;-83
2022/05/27 11:44:17;;;;;;;3.77;1.60;;;;;;;18.58;47.91;100896.66;5043789;28;20202;-83
2022/05/27 11:47:08;;;;;;;5.60;1.97;;;;;;;18.52;46.47;100895.38;5041052;28;20243;-83
2022/05/27 11:49:46;;;;;;;6.70;2.03;;;;;;;18.56;46.98;100894.09;5042616;28;20207;-83
2022/05/27 11:52:36;;;;;;;8.50;2.03;;;;;;;18.67;46.73;100920.09;5045306;28;20228;-84
2022/05/27 11:55:25;;;;;;;6.60;2.13;;;;;;;18.74;46.68;100891.56;5045094;28;20203;-84
2022/05/27 11:58:05;;;;;;;6.00;1.60;;;;;;;18.61;44.44;100886.47;5048390;28;20224;-83
2022/05/27 12:00:39;;;;;;;4.43;1.67;;;;;;;18.53;44.58;100882.72;5039732;28;20204;-83
2022/05/27 12:03:12;;;;;;;5.77;1.77;;;;;;;18.51;44.40;100885.56;5051769;28;20222;-83
2022/05/27 12:05:42;;;;;;;4.27;1.50;;;;;;;18.45;43.35;100880.72;5049903;28;20207;-83
2022/05/27 12:08:21;;;;;;;6.73;1.73;;;;;;;18.46;43.31;100882.44;5044837;28;20206;-83
2022/05/27 12:10:50;;;;;;;4.47;1.77;;;;;;;18.44;43.42;100879.06;5043282;28;20223;-83
2022/05/27 12:13:26;;;;;;;6.57;1.90;;;;;;;18.44;43.69;100889.00;5051757;28;20225;-83
2022/05/27 12:15:56;;;;;;;5.80;1.50;;;;;;;18.44;44.29;100886.28;5049831;28;20623;-84